createdAt,value
2022-09-12T00:00:41.714Z,12.92
2022-09-12T00:03:21.038Z,12.88
2022-09-12T00:05:59.644Z,12.87
2022-09-12T00:08:41.154Z,12.87
2022-09-12T00:11:20.481Z,12.85
2022-09-12T00:14:02.132Z,12.83
2022-09-12T00:16:40.535Z,12.84
2022-09-12T00:19:20.677Z,12.80
2022-09-12T00:22:00.115Z,12.75
2022-09-12T00:24:40.791Z,12.77
2022-09-12T00:27:22.894Z,12.77
2022-09-12T00:30:02.294Z,12.75
2022-09-12T00:32:42.092Z,12.72
2022-09-12T00:35:22.072Z,12.71
2022-09-12T00:38:01.723Z,12.67
2022-09-12T00:40:42.998Z,12.65
2022-09-12T00:43:37.563Z,12.63
2022-09-12T00:46:29.126Z,12.61
2022-09-12T00:49:15.576Z,12.62
2022-09-12T00:51:57.073Z,12.59
2022-09-12T00:54:40.247Z,12.58
2022-09-12T00:57:20.447Z,12.58
2022-09-12T01:00:11.415Z,12.55
2022-09-12T01:02:54.957Z,12.53
2022-09-12T01:05:52.285Z,12.51
2022-09-12T01:08:34.441Z,12.48
2022-09-12T01:11:15.119Z,12.44
2022-09-12T01:13:55.601Z,12.43
2022-09-12T01:16:35.951Z,12.43
2022-09-12T01:19:33.595Z,12.40
2022-09-12T01:22:22.306Z,12.39
2022-09-12T01:25:09.357Z,12.38
2022-09-12T01:28:18.453Z,12.37
2022-09-12T01:31:03.067Z,12.36
2022-09-12T01:33:56.410Z,12.34
2022-09-12T01:36:42.299Z,12.31
2022-09-12T01:39:31.167Z,12.30
2022-09-12T01:42:17.177Z,12.28
2022-09-12T01:45:04.621Z,12.24
2022-09-12T01:47:46.711Z,12.22
2022-09-12T01:50:30.003Z,12.20
2022-09-12T01:53:32.388Z,12.20
2022-09-12T01:56:15.255Z,12.17
2022-09-12T01:58:59.565Z,12.14
2022-09-12T02:01:44.430Z,12.14
2022-09-12T02:04:27.709Z,12.14
2022-09-12T02:07:13.804Z,12.14
2022-09-12T02:09:57.587Z,12.10
2022-09-12T02:12:41.386Z,12.08
2022-09-12T02:15:25.253Z,12.05
2022-09-12T02:18:08.040Z,12.03
2022-09-12T02:20:49.584Z,12.03
2022-09-12T02:23:30.612Z,12.02
2022-09-12T02:26:16.356Z,12.00
2022-09-12T02:28:56.268Z,11.97
2022-09-12T02:31:41.763Z,11.98
2022-09-12T02:34:30.952Z,11.95
2022-09-12T02:37:20.136Z,11.93
2022-09-12T02:40:00.150Z,11.90
2022-09-12T02:42:42.908Z,11.89
2022-09-12T02:45:23.277Z,11.87
2022-09-12T02:48:07.232Z,11.85
2022-09-12T02:50:46.854Z,11.83
2022-09-12T02:53:26.771Z,11.82
2022-09-12T02:56:10.616Z,11.75
2022-09-12T02:58:50.948Z,11.79
2022-09-12T03:01:41.077Z,11.77
2022-09-12T03:04:46.773Z,11.75
2022-09-12T03:07:37.541Z,11.74
2022-09-12T03:10:25.613Z,11.72
2022-09-12T03:13:18.281Z,11.71
2022-09-12T03:16:05.275Z,11.68
2022-09-12T03:18:52.194Z,11.69
2022-09-12T03:21:38.345Z,11.70
2022-09-12T03:24:20.541Z,11.67
2022-09-12T03:27:14.241Z,11.63
2022-09-12T03:29:54.888Z,11.67
2022-09-12T03:32:44.753Z,11.65
2022-09-12T03:35:27.359Z,11.64
2022-09-12T03:38:07.997Z,11.62
2022-09-12T03:40:52.725Z,11.62
2022-09-12T03:43:34.407Z,11.61
2022-09-12T03:46:14.513Z,11.59
2022-09-12T03:48:53.961Z,11.58
2022-09-12T03:51:35.783Z,11.56
2022-09-12T03:54:15.167Z,11.53
2022-09-12T03:56:54.978Z,11.48
2022-09-12T03:59:34.804Z,11.45
2022-09-12T04:02:14.640Z,11.40
2022-09-12T04:04:54.422Z,11.42
2022-09-12T04:07:34.197Z,11.40
2022-09-12T04:10:16.422Z,11.39
2022-09-12T04:12:59.026Z,11.39
2022-09-12T04:15:38.442Z,11.34
2022-09-12T04:18:18.236Z,11.33
2022-09-12T04:20:58.463Z,11.31
2022-09-12T04:23:40.153Z,11.30
2022-09-12T04:26:22.326Z,11.28
2022-09-12T04:29:02.278Z,11.30
2022-09-12T04:31:42.265Z,11.30
2022-09-12T04:34:21.897Z,11.29
2022-09-12T04:37:03.863Z,11.31
2022-09-12T04:39:43.151Z,11.28
2022-09-12T04:42:22.943Z,11.26
2022-09-12T04:45:03.496Z,11.25
2022-09-12T04:47:44.148Z,11.25
2022-09-12T04:50:23.966Z,11.22
2022-09-12T04:53:03.737Z,11.22
2022-09-12T04:55:43.632Z,11.20
2022-09-12T04:58:23.368Z,11.22
2022-09-12T05:01:07.534Z,11.20
2022-09-12T05:03:48.247Z,11.18
2022-09-12T05:06:29.971Z,11.18
2022-09-12T05:09:14.017Z,11.19
2022-09-12T05:12:04.659Z,11.17
2022-09-12T05:14:44.606Z,11.15
2022-09-12T05:17:24.420Z,11.17
2022-09-12T05:20:07.077Z,11.18
2022-09-12T05:22:47.218Z,11.17
2022-09-12T05:25:27.032Z,11.18
2022-09-12T05:28:08.843Z,11.21
2022-09-12T05:30:48.506Z,11.21
2022-09-12T05:33:30.131Z,11.19
2022-09-12T05:36:12.245Z,11.20
2022-09-12T05:38:54.880Z,11.24
2022-09-12T05:41:47.468Z,11.28
2022-09-12T05:44:28.116Z,11.31
2022-09-12T05:47:07.354Z,11.33
2022-09-12T05:49:47.880Z,11.35
2022-09-12T05:52:30.113Z,11.37
2022-09-12T05:55:11.456Z,11.40
2022-09-12T05:57:50.935Z,11.44
2022-09-12T06:00:33.625Z,11.47
2022-09-12T06:03:15.789Z,11.52
2022-09-12T06:05:55.254Z,11.57
2022-09-12T06:08:34.606Z,11.60
2022-09-12T06:11:16.445Z,11.64
2022-09-12T06:13:58.934Z,11.69
2022-09-12T06:16:41.344Z,11.74
2022-09-12T06:19:21.553Z,11.77
2022-09-12T06:22:04.982Z,11.85
2022-09-12T06:24:45.003Z,11.92
2022-09-12T06:27:24.863Z,12.00
2022-09-12T06:30:08.184Z,12.04
2022-09-12T06:32:46.368Z,12.08
2022-09-12T06:36:12.093Z,12.17
2022-09-12T06:38:55.070Z,12.21
2022-09-12T06:41:37.612Z,12.27
2022-09-12T06:44:20.822Z,12.32
2022-09-12T06:47:00.025Z,12.41
2022-09-12T06:49:44.869Z,12.53
2022-09-12T06:52:26.451Z,12.61
2022-09-12T06:55:06.860Z,12.76
2022-09-12T06:58:29.543Z,12.89
2022-09-12T07:01:10.989Z,13.01
2022-09-12T07:03:51.483Z,13.14
2022-09-12T07:06:39.733Z,13.29
2022-09-12T07:09:20.023Z,13.44
2022-09-12T07:12:00.772Z,13.55
2022-09-12T07:14:41.554Z,13.67
2022-09-12T07:17:20.908Z,13.77
2022-09-12T07:20:01.457Z,13.90
2022-09-12T07:22:42.278Z,14.01
2022-09-12T07:25:21.910Z,14.08
2022-09-12T07:28:02.246Z,14.22
2022-09-12T07:30:42.270Z,14.30
2022-09-12T07:33:29.244Z,14.44
2022-09-12T07:36:12.425Z,14.56
2022-09-12T07:38:57.616Z,14.68
2022-09-12T07:41:38.327Z,14.81
2022-09-12T07:44:18.142Z,14.90
2022-09-12T07:46:59.956Z,15.07
2022-09-12T07:49:39.339Z,15.19
2022-09-12T07:52:19.171Z,15.32
2022-09-12T07:55:12.355Z,15.45
2022-09-12T07:57:51.412Z,15.59
2022-09-12T08:00:35.739Z,15.79
2022-09-12T08:03:14.934Z,15.91
2022-09-12T08:05:53.839Z,16.11
2022-09-12T08:08:33.224Z,16.32
2022-09-12T08:11:24.640Z,16.49
2022-09-12T08:14:05.620Z,16.66
2022-09-12T08:16:46.153Z,16.89
2022-09-12T08:19:28.789Z,17.03
2022-09-12T08:22:10.509Z,17.27
2022-09-12T08:24:50.127Z,17.48
2022-09-12T08:27:29.406Z,17.74
2022-09-12T08:30:10.512Z,17.96
2022-09-12T08:32:50.618Z,18.14
2022-09-12T08:35:31.253Z,18.37
2022-09-12T08:38:11.862Z,18.59
2022-09-12T08:40:55.132Z,18.81
2022-09-12T08:43:52.061Z,19.11
2022-09-12T08:46:38.771Z,19.42
2022-09-12T08:49:27.786Z,19.68
2022-09-12T08:52:12.835Z,19.66
2022-09-12T08:54:52.584Z,20.06
2022-09-12T08:57:32.103Z,20.19
2022-09-12T09:00:22.841Z,20.16
2022-09-12T09:03:27.492Z,20.21
2022-09-12T09:06:14.223Z,20.13
2022-09-12T09:09:05.100Z,20.45
2022-09-12T09:11:54.458Z,20.51
2022-09-12T09:15:21.971Z,21.07
2022-09-12T09:18:06.353Z,21.05
2022-09-12T09:20:48.601Z,21.33
2022-09-12T09:23:30.783Z,21.19
2022-09-12T09:26:14.591Z,21.47
2022-09-12T09:28:56.632Z,21.64
2022-09-12T09:31:39.429Z,21.36
2022-09-12T09:34:22.276Z,21.68
2022-09-12T09:37:07.584Z,21.68
2022-09-12T09:39:53.418Z,21.90
2022-09-12T09:42:39.441Z,22.08
2022-09-12T09:45:24.028Z,22.10
2022-09-12T09:48:15.344Z,22.01
2022-09-12T09:50:59.974Z,22.22
2022-09-12T09:53:45.109Z,22.45
2022-09-12T09:56:32.733Z,21.99
2022-09-12T09:59:13.643Z,22.25
2022-09-12T10:01:55.509Z,22.61
2022-09-12T10:04:41.040Z,22.79
2022-09-12T10:07:23.949Z,22.97
2022-09-12T10:10:22.686Z,23.11
2022-09-12T10:13:10.088Z,23.03
2022-09-12T10:15:59.278Z,23.05
2022-09-12T10:18:42.099Z,23.00
2022-09-12T10:21:29.532Z,23.13
2022-09-12T10:24:20.701Z,23.41
2022-09-12T10:27:10.660Z,23.35
2022-09-12T10:29:51.728Z,23.18
2022-09-12T10:32:36.680Z,23.38
2022-09-12T10:35:20.036Z,23.42
2022-09-12T10:38:02.304Z,23.66
2022-09-12T10:40:44.362Z,23.73
2022-09-12T10:43:28.066Z,23.74
2022-09-12T10:46:29.869Z,24.03
2022-09-12T10:49:22.261Z,23.86
2022-09-12T10:52:18.146Z,24.00
2022-09-12T10:54:57.671Z,23.66
2022-09-12T10:57:51.082Z,24.06
2022-09-12T11:00:31.302Z,24.21
2022-09-12T11:03:21.997Z,24.25
2022-09-12T11:06:01.732Z,24.41
2022-09-12T11:08:53.425Z,24.49
2022-09-12T11:11:46.801Z,23.97
2022-09-12T11:14:37.460Z,24.18
2022-09-12T11:17:23.425Z,24.38
2022-09-12T11:20:14.824Z,24.38
2022-09-12T11:23:10.859Z,24.28
2022-09-12T11:25:53.990Z,24.57
2022-09-12T11:28:47.166Z,24.59
2022-09-12T11:31:44.259Z,24.68
2022-09-12T11:34:29.446Z,24.08
2022-09-12T11:37:25.721Z,24.28
2022-09-12T11:40:22.765Z,24.44
2022-09-12T11:43:07.154Z,24.41
2022-09-12T11:45:47.733Z,24.62
2022-09-12T11:48:37.249Z,24.11
2022-09-12T11:51:20.823Z,24.55
2022-09-12T11:54:06.632Z,24.63
2022-09-12T11:56:48.228Z,24.82
2022-09-12T11:59:35.133Z,24.90
2022-09-12T12:02:16.318Z,24.82
2022-09-12T12:05:04.944Z,24.52
2022-09-12T12:07:53.044Z,24.71
2022-09-12T12:10:36.110Z,24.51
2022-09-12T12:13:20.960Z,24.92
2022-09-12T12:16:03.637Z,24.37
2022-09-12T12:18:43.857Z,24.73
2022-09-12T12:21:36.169Z,25.00
2022-09-12T12:24:20.764Z,25.11
2022-09-12T12:27:04.829Z,25.29
2022-09-12T12:29:45.695Z,24.98
2022-09-12T12:32:28.302Z,25.46
2022-09-12T12:35:39.183Z,25.79
2022-09-12T12:38:30.409Z,25.62
2022-09-12T12:41:45.897Z,25.49
2022-09-12T12:44:52.335Z,25.41
2022-09-12T12:47:34.883Z,25.66
2022-09-12T12:50:23.810Z,25.71
2022-09-12T12:53:43.261Z,25.69
2022-09-12T12:56:39.033Z,25.87
2022-09-12T13:00:03.252Z,25.63
2022-09-12T13:02:58.313Z,26.12
2022-09-12T13:05:42.093Z,26.34
2022-09-12T13:08:31.272Z,26.36
2022-09-12T13:11:15.687Z,26.45
2022-09-12T13:14:00.160Z,26.55
2022-09-12T13:16:52.632Z,26.61
2022-09-12T13:19:37.318Z,26.87
2022-09-12T13:22:17.882Z,26.94
2022-09-12T13:24:56.849Z,26.78
2022-09-12T13:27:35.413Z,26.89
2022-09-12T13:30:16.078Z,26.71
2022-09-12T13:32:55.102Z,26.62
2022-09-12T13:35:42.196Z,26.46
2022-09-12T13:38:49.273Z,25.68
2022-09-12T13:41:41.696Z,25.90
2022-09-12T13:44:27.942Z,25.99
2022-09-12T13:47:15.450Z,25.92
2022-09-12T13:50:42.566Z,25.84
2022-09-12T13:53:44.839Z,25.34
2022-09-12T13:56:29.102Z,25.26
2022-09-12T13:59:13.595Z,25.17
2022-09-12T14:01:53.964Z,25.09
2022-09-12T14:04:51.330Z,24.97
2022-09-12T14:07:40.103Z,24.91
2022-09-12T14:10:24.682Z,24.85
2022-09-12T14:13:13.293Z,24.76
2022-09-12T14:15:56.054Z,24.74
2022-09-12T14:18:38.984Z,24.58
2022-09-12T14:21:36.736Z,24.06
2022-09-12T14:24:19.684Z,24.13
2022-09-12T14:27:01.913Z,24.11
2022-09-12T14:29:44.123Z,23.90
2022-09-12T14:32:26.472Z,23.80
2022-09-12T14:35:08.385Z,23.72
2022-09-12T14:37:50.763Z,23.61
2022-09-12T14:40:31.697Z,23.43
2022-09-12T14:43:21.894Z,23.19
2022-09-12T14:46:03.907Z,23.27
2022-09-12T14:48:48.712Z,23.12
2022-09-12T14:51:34.714Z,23.16
2022-09-12T14:54:38.763Z,23.08
2022-09-12T14:57:40.155Z,23.04
2022-09-12T15:00:23.942Z,22.90
2022-09-12T15:03:25.287Z,23.00
2022-09-12T15:06:08.113Z,22.89
2022-09-12T15:08:49.751Z,22.86
2022-09-12T15:11:30.893Z,22.82
2022-09-12T15:14:13.996Z,22.85
2022-09-12T15:16:54.155Z,22.79
2022-09-12T15:19:34.174Z,22.68
2022-09-12T15:22:14.581Z,22.58
2022-09-12T15:24:57.552Z,22.59
2022-09-12T15:27:40.839Z,22.58
2022-09-12T15:30:23.328Z,22.51
2022-09-12T15:33:06.166Z,22.41
2022-09-12T15:35:49.660Z,22.41
2022-09-12T15:38:30.029Z,22.33
2022-09-12T15:41:14.845Z,22.22
2022-09-12T15:43:54.539Z,22.24
2022-09-12T15:46:34.491Z,22.23
2022-09-12T15:49:14.179Z,22.17
2022-09-12T15:51:53.899Z,22.14
2022-09-12T15:54:33.938Z,22.06
2022-09-12T15:57:13.619Z,22.02
2022-09-12T16:00:10.208Z,21.94
2022-09-12T16:02:54.107Z,21.96
2022-09-12T16:05:35.510Z,21.89
2022-09-12T16:08:18.035Z,21.92
2022-09-12T16:11:04.050Z,21.83
2022-09-12T16:13:47.297Z,21.91
2022-09-12T16:16:27.781Z,21.90
2022-09-12T16:19:09.112Z,21.85
2022-09-12T16:21:50.643Z,21.83
2022-09-12T16:24:30.629Z,21.83
2022-09-12T16:27:10.545Z,21.72
2022-09-12T16:29:51.496Z,21.77
2022-09-12T16:32:31.403Z,21.74
2022-09-12T16:35:11.155Z,21.53
2022-09-12T16:37:50.944Z,21.57
2022-09-12T16:40:31.033Z,21.49
2022-09-12T16:43:10.515Z,21.38
2022-09-12T16:45:50.384Z,21.29
2022-09-12T16:48:30.327Z,21.24
2022-09-12T16:51:09.963Z,21.23
2022-09-12T16:53:50.286Z,21.16
2022-09-12T16:56:43.106Z,21.20
2022-09-12T16:59:22.942Z,21.17
2022-09-12T17:02:04.639Z,21.10
2022-09-12T17:04:44.105Z,21.07
2022-09-12T17:07:25.833Z,21.01
2022-09-12T17:10:08.402Z,20.92
2022-09-12T17:12:49.053Z,20.87
2022-09-12T17:15:31.587Z,20.75
2022-09-12T17:18:10.995Z,20.69
2022-09-12T17:20:51.154Z,20.60
2022-09-12T17:23:30.738Z,20.51
2022-09-12T17:26:13.157Z,20.36
2022-09-12T17:28:53.616Z,20.10
2022-09-12T17:31:33.590Z,20.09
2022-09-12T17:34:16.106Z,20.09
2022-09-12T17:36:56.067Z,20.00
2022-09-12T17:39:47.276Z,19.94
2022-09-12T17:42:27.477Z,19.86
2022-09-12T17:45:15.143Z,19.79
2022-09-12T17:47:58.319Z,19.68
2022-09-12T17:50:39.526Z,19.56
2022-09-12T17:53:19.803Z,19.47
2022-09-12T17:56:02.121Z,19.34
2022-09-12T17:58:42.391Z,19.27
2022-09-12T18:01:41.721Z,19.21
2022-09-12T18:04:21.952Z,19.05
2022-09-12T18:07:02.675Z,18.94
2022-09-12T18:09:43.276Z,18.86
2022-09-12T18:12:24.054Z,18.83
2022-09-12T18:15:03.556Z,18.77
2022-09-12T18:17:45.385Z,18.70
2022-09-12T18:20:24.824Z,18.58
2022-09-12T18:23:04.691Z,18.59
2022-09-12T18:25:44.418Z,18.54
2022-09-12T18:28:24.257Z,18.52
2022-09-12T18:31:04.648Z,18.47
2022-09-12T18:33:44.159Z,18.42
2022-09-12T18:36:25.651Z,18.36
2022-09-12T18:39:05.274Z,18.31
2022-09-12T18:41:57.615Z,18.24
2022-09-12T18:44:38.245Z,18.17
2022-09-12T18:47:17.859Z,18.09
2022-09-12T18:49:59.641Z,18.04
2022-09-12T18:52:39.032Z,17.98
2022-09-12T18:55:18.886Z,17.92
2022-09-12T18:57:58.635Z,17.84
2022-09-12T19:00:41.285Z,17.77
2022-09-12T19:03:23.523Z,17.70
2022-09-12T19:06:09.375Z,17.59
2022-09-12T19:08:49.640Z,17.60
2022-09-12T19:11:30.959Z,17.49
2022-09-12T19:14:10.330Z,17.45
2022-09-12T19:16:50.660Z,17.39
2022-09-12T19:19:29.978Z,17.32
2022-09-12T19:22:10.656Z,17.22
2022-09-12T19:24:53.149Z,17.20
2022-09-12T19:27:34.748Z,17.17
2022-09-12T19:30:14.831Z,17.08
2022-09-12T19:32:55.356Z,17.03
2022-09-12T19:35:45.830Z,17.02
2022-09-12T19:38:25.208Z,16.95
2022-09-12T19:41:06.348Z,16.88
2022-09-12T19:43:46.009Z,16.88
2022-09-12T19:46:27.083Z,16.84
2022-09-12T19:49:07.195Z,16.79
2022-09-12T19:51:49.015Z,16.75
2022-09-12T19:54:30.448Z,16.77
2022-09-12T19:57:09.848Z,16.68
2022-09-12T19:59:49.804Z,16.69
2022-09-12T20:02:29.811Z,16.71
2022-09-12T20:05:09.578Z,16.73
2022-09-12T20:07:49.135Z,16.71
2022-09-12T20:10:29.172Z,16.72
2022-09-12T20:13:10.991Z,16.68
2022-09-12T20:15:50.122Z,16.69
2022-09-12T20:18:29.876Z,16.68
2022-09-12T20:21:11.172Z,16.72
2022-09-12T20:23:51.107Z,16.67
2022-09-12T20:26:30.973Z,16.66
2022-09-12T20:29:23.820Z,16.56
2022-09-12T20:32:03.884Z,16.51
2022-09-12T20:34:42.539Z,16.47
2022-09-12T20:37:21.976Z,16.46
2022-09-12T20:40:04.512Z,16.46
2022-09-12T20:42:44.776Z,16.45
2022-09-12T20:45:24.593Z,16.45
2022-09-12T20:48:04.683Z,16.39
2022-09-12T20:50:44.168Z,16.42
2022-09-12T20:53:22.711Z,16.39
2022-09-12T20:56:02.339Z,16.39
2022-09-12T20:58:44.359Z,16.31
2022-09-12T21:01:25.997Z,16.32
2022-09-12T21:04:10.779Z,16.27
2022-09-12T21:06:54.276Z,16.27
2022-09-12T21:09:34.046Z,16.24
2022-09-12T21:12:15.849Z,16.19
2022-09-12T21:14:55.215Z,16.23
2022-09-12T21:17:35.003Z,16.18
2022-09-12T21:20:16.842Z,16.16
2022-09-12T21:22:56.269Z,16.15
2022-09-12T21:25:36.105Z,16.15
2022-09-12T21:28:16.118Z,16.22
2022-09-12T21:30:56.290Z,16.25
2022-09-12T21:33:37.665Z,16.23
2022-09-12T21:36:16.865Z,16.25
2022-09-12T21:38:59.972Z,16.18
2022-09-12T21:41:39.689Z,16.16
2022-09-12T21:44:19.474Z,16.16
2022-09-12T21:46:59.375Z,16.20
2022-09-12T21:49:41.131Z,16.21
2022-09-12T21:52:20.503Z,16.24
2022-09-12T21:55:00.392Z,16.20
2022-09-12T21:57:40.269Z,16.19
2022-09-12T22:00:20.003Z,16.21
2022-09-12T22:03:00.036Z,16.19
2022-09-12T22:05:41.553Z,16.16
2022-09-12T22:08:22.939Z,16.13
2022-09-12T22:11:07.802Z,16.12
2022-09-12T22:13:49.086Z,16.07
2022-09-12T22:16:30.431Z,16.11
2022-09-12T22:19:10.565Z,15.98
2022-09-12T22:22:08.769Z,16.02
2022-09-12T22:24:50.424Z,16.01
2022-09-12T22:27:30.036Z,15.98
2022-09-12T22:30:10.980Z,15.97
2022-09-12T22:32:51.643Z,15.96
2022-09-12T22:35:31.037Z,15.94
2022-09-12T22:38:10.892Z,15.92
2022-09-12T22:40:50.655Z,15.89
2022-09-12T22:43:32.936Z,15.87
2022-09-12T22:46:13.758Z,15.86
2022-09-12T22:48:55.489Z,15.85
2022-09-12T22:51:34.867Z,15.83
2022-09-12T22:54:14.499Z,15.79
2022-09-12T22:56:54.297Z,15.75
2022-09-12T22:59:34.484Z,15.73
2022-09-12T23:02:15.918Z,15.73
2022-09-12T23:04:55.303Z,15.73
2022-09-12T23:07:35.604Z,15.70
2022-09-12T23:10:15.349Z,15.65
2022-09-12T23:13:37.587Z,15.65
2022-09-12T23:16:19.154Z,15.63
2022-09-12T23:18:59.728Z,15.62
2022-09-12T23:21:39.567Z,15.54
2022-09-12T23:24:18.140Z,15.56
2022-09-12T23:26:57.577Z,15.52
2022-09-12T23:29:39.383Z,15.52
2022-09-12T23:32:19.061Z,15.53
2022-09-12T23:34:58.912Z,15.46
2022-09-12T23:37:50.953Z,15.50
2022-09-12T23:40:32.079Z,15.49
2022-09-12T23:43:11.353Z,15.47
2022-09-12T23:45:51.330Z,15.43
2022-09-12T23:48:42.199Z,15.43
2022-09-12T23:51:24.166Z,15.36
2022-09-12T23:54:04.295Z,15.36
2022-09-12T23:56:43.382Z,15.36
2022-09-12T23:59:23.210Z,15.37
